createdAt,value
2023-05-03T00:00:44.529Z,15.57
2023-05-03T00:03:13.725Z,12.45
2023-05-03T00:05:44.426Z,9.88
2023-05-03T00:08:18.178Z,10.02
2023-05-03T00:10:47.153Z,9.23
2023-05-03T00:13:15.599Z,8.75
2023-05-03T00:15:50.766Z,9.05
2023-05-03T00:18:19.905Z,19.17
2023-05-03T00:20:50.320Z,9.13
2023-05-03T00:23:22.524Z,10.30
2023-05-03T00:25:53.878Z,15.25
2023-05-03T00:28:28.271Z,50.00
2023-05-03T00:30:57.310Z,8.60
2023-05-03T00:33:31.492Z,7.97
2023-05-03T00:36:03.024Z,15.27
2023-05-03T00:38:40.793Z,14.18
2023-05-03T00:41:14.653Z,73.78
2023-05-03T00:43:44.918Z,110.28
2023-05-03T00:46:18.086Z,62.72
2023-05-03T00:48:49.694Z,46.88
2023-05-03T00:51:20.172Z,15.60
2023-05-03T00:53:52.423Z,17.90
2023-05-03T00:56:22.922Z,36.65
2023-05-03T00:58:55.689Z,31.02
2023-05-03T01:01:26.466Z,34.22
2023-05-03T01:03:55.656Z,28.92
2023-05-03T01:06:34.519Z,52.25
2023-05-03T01:09:12.669Z,36.50
2023-05-03T01:11:48.793Z,53.30
2023-05-03T01:14:33.825Z,21.27
2023-05-03T01:17:11.191Z,11.82
2023-05-03T01:19:45.686Z,8.98
2023-05-03T01:22:22.864Z,7.88
2023-05-03T01:25:01.571Z,7.35
2023-05-03T01:27:31.017Z,7.13
2023-05-03T01:29:59.641Z,8.65
2023-05-03T01:32:38.034Z,8.68
2023-05-03T01:35:13.570Z,7.75
2023-05-03T01:37:43.419Z,16.77
2023-05-03T01:40:19.497Z,20.63
2023-05-03T01:42:48.941Z,13.40
2023-05-03T01:45:19.389Z,10.55
2023-05-03T01:47:48.990Z,6.22
2023-05-03T01:50:17.788Z,6.88
2023-05-03T01:52:46.729Z,6.45
2023-05-03T01:55:19.258Z,12.68
2023-05-03T01:57:48.769Z,19.27
2023-05-03T02:00:17.404Z,8.27
2023-05-03T02:02:45.819Z,52.28
2023-05-03T02:05:14.455Z,24.70
2023-05-03T02:07:42.824Z,29.55
2023-05-03T02:10:15.078Z,47.08
2023-05-03T02:12:45.771Z,14.93
2023-05-03T02:15:16.025Z,24.02
2023-05-03T02:17:46.115Z,11.02
2023-05-03T02:20:14.551Z,8.07
2023-05-03T02:22:43.934Z,7.82
2023-05-03T02:25:12.826Z,8.02
2023-05-03T02:27:41.385Z,6.47
2023-05-03T02:30:12.247Z,6.40
2023-05-03T02:32:44.625Z,7.47
2023-05-03T02:35:13.114Z,7.05
2023-05-03T02:37:42.042Z,9.27
2023-05-03T02:40:13.947Z,8.30
2023-05-03T02:42:45.540Z,6.82
2023-05-03T02:45:18.226Z,6.35
2023-05-03T02:47:48.144Z,6.38
2023-05-03T02:50:17.290Z,7.10
2023-05-03T02:52:46.773Z,7.40
2023-05-03T02:55:15.645Z,8.02
2023-05-03T02:57:47.466Z,7.00
2023-05-03T03:00:21.608Z,6.55
2023-05-03T03:02:51.371Z,7.45
2023-05-03T03:05:20.072Z,7.40
2023-05-03T03:07:52.654Z,8.77
2023-05-03T03:10:21.196Z,8.60
2023-05-03T03:12:50.435Z,13.77
2023-05-03T03:15:34.450Z,8.35
2023-05-03T03:18:02.985Z,10.18
2023-05-03T03:20:33.203Z,10.68
2023-05-03T03:23:01.639Z,19.55
2023-05-03T03:25:31.109Z,12.30
2023-05-03T03:28:00.798Z,9.02
2023-05-03T03:30:32.204Z,7.15
2023-05-03T03:33:12.386Z,6.63
2023-05-03T03:35:42.976Z,7.57
2023-05-03T03:38:13.254Z,7.82
2023-05-03T03:40:49.928Z,7.97
2023-05-03T03:43:19.023Z,12.48
2023-05-03T03:45:48.407Z,9.40
2023-05-03T03:48:19.740Z,8.45
2023-05-03T03:50:50.218Z,7.38
2023-05-03T03:53:20.697Z,6.70
2023-05-03T03:55:50.355Z,7.82
2023-05-03T03:58:19.753Z,6.20
2023-05-03T04:00:48.922Z,6.10
2023-05-03T04:03:22.223Z,7.30
2023-05-03T04:05:51.584Z,8.15
2023-05-03T04:08:22.401Z,7.85
2023-05-03T04:10:51.698Z,8.48
2023-05-03T04:13:20.944Z,7.60
2023-05-03T04:15:55.763Z,7.10
2023-05-03T04:18:26.843Z,6.80
2023-05-03T04:20:58.223Z,7.95
2023-05-03T04:23:27.788Z,7.35
2023-05-03T04:25:57.812Z,8.32
2023-05-03T04:28:28.027Z,7.15
2023-05-03T04:30:59.072Z,7.45
2023-05-03T04:33:31.436Z,8.55
2023-05-03T04:36:05.080Z,7.05
2023-05-03T04:38:35.267Z,7.97
2023-05-03T04:41:07.093Z,7.65
2023-05-03T04:43:35.775Z,7.32
2023-05-03T04:46:05.369Z,6.88
2023-05-03T04:48:35.919Z,6.75
2023-05-03T04:51:06.093Z,8.00
2023-05-03T04:53:34.695Z,7.43
2023-05-03T04:56:09.786Z,6.88
2023-05-03T04:58:40.751Z,7.80
2023-05-03T05:01:09.538Z,8.93
2023-05-03T05:03:40.695Z,9.68
2023-05-03T05:06:15.400Z,8.65
2023-05-03T05:08:44.902Z,10.82
2023-05-03T05:11:16.012Z,10.65
2023-05-03T05:13:45.261Z,7.85
2023-05-03T05:16:14.141Z,8.43
2023-05-03T05:18:48.586Z,10.68
2023-05-03T05:21:18.256Z,9.52
2023-05-03T05:23:47.623Z,9.63
2023-05-03T05:26:16.353Z,10.38
2023-05-03T05:28:45.652Z,10.75
2023-05-03T05:31:14.641Z,11.20
2023-05-03T05:33:44.562Z,11.65
2023-05-03T05:36:15.425Z,12.20
2023-05-03T05:38:44.719Z,11.95
2023-05-03T05:41:13.158Z,15.55
2023-05-03T05:43:44.067Z,14.68
2023-05-03T05:46:12.535Z,16.10
2023-05-03T05:48:43.435Z,13.13
2023-05-03T05:51:12.736Z,14.57
2023-05-03T05:53:43.368Z,16.80
2023-05-03T05:56:12.398Z,15.25
2023-05-03T05:58:41.672Z,15.68
2023-05-03T06:01:10.750Z,16.95
2023-05-03T06:03:40.756Z,15.32
2023-05-03T06:06:10.406Z,16.63
2023-05-03T06:08:40.366Z,27.13
2023-05-03T06:11:10.137Z,16.75
2023-05-03T06:13:41.266Z,14.55
2023-05-03T06:16:12.563Z,14.60
2023-05-03T06:18:40.988Z,15.32
2023-05-03T06:21:11.780Z,12.90
2023-05-03T06:23:40.684Z,15.07
2023-05-03T06:26:12.193Z,14.98
2023-05-03T06:28:41.094Z,15.07
2023-05-03T06:31:09.931Z,15.25
2023-05-03T06:33:38.845Z,15.35
2023-05-03T06:36:09.742Z,17.52
2023-05-03T06:38:39.086Z,14.25
2023-05-03T06:41:08.224Z,12.52
2023-05-03T06:43:38.013Z,14.65
2023-05-03T06:46:08.367Z,16.67
2023-05-03T06:48:37.101Z,18.17
2023-05-03T06:51:06.501Z,16.60
2023-05-03T06:53:35.724Z,19.33
2023-05-03T06:56:05.394Z,18.10
2023-05-03T06:58:35.600Z,18.08
2023-05-03T07:01:05.382Z,17.70
2023-05-03T07:03:34.340Z,19.42
2023-05-03T07:06:03.000Z,17.77
2023-05-03T07:08:31.359Z,16.80
2023-05-03T07:11:00.824Z,17.70
2023-05-03T07:13:29.609Z,19.17
2023-05-03T07:15:58.423Z,22.23
2023-05-03T07:18:28.810Z,19.95
2023-05-03T07:20:57.289Z,18.70
2023-05-03T07:23:26.805Z,19.92
2023-05-03T07:25:56.053Z,18.73
2023-05-03T07:28:25.132Z,19.15
2023-05-03T07:30:53.791Z,17.45
2023-05-03T07:33:22.900Z,21.08
2023-05-03T07:35:52.726Z,19.85
2023-05-03T07:38:21.834Z,21.13
2023-05-03T07:40:50.399Z,21.83
2023-05-03T07:43:24.184Z,20.65
2023-05-03T07:45:52.577Z,21.88
2023-05-03T07:48:21.853Z,20.48
2023-05-03T07:50:50.235Z,20.42
2023-05-03T07:53:19.924Z,25.63
2023-05-03T07:55:48.293Z,22.70
2023-05-03T07:58:19.601Z,22.45
2023-05-03T08:00:49.796Z,24.10
2023-05-03T08:03:18.733Z,23.30
2023-05-03T08:05:48.595Z,23.50
2023-05-03T08:08:17.312Z,21.65
2023-05-03T08:10:47.744Z,21.48
2023-05-03T08:13:17.216Z,19.17
2023-05-03T08:15:46.034Z,20.08
2023-05-03T08:18:15.004Z,19.02
2023-05-03T08:20:43.858Z,18.52
2023-05-03T08:23:12.279Z,19.20
2023-05-03T08:25:41.104Z,17.08
2023-05-03T08:28:10.861Z,19.23
2023-05-03T08:30:40.098Z,17.65
2023-05-03T08:33:09.915Z,18.20
2023-05-03T08:35:38.771Z,17.40
2023-05-03T08:38:07.508Z,18.00
2023-05-03T08:40:40.371Z,17.23
2023-05-03T08:43:11.523Z,16.77
2023-05-03T08:45:39.930Z,17.77
2023-05-03T08:48:08.569Z,17.48
2023-05-03T08:50:42.318Z,15.52
2023-05-03T08:53:11.753Z,18.23
2023-05-03T08:55:40.372Z,16.88
2023-05-03T08:58:12.809Z,16.95
2023-05-03T09:00:45.013Z,16.58
2023-05-03T09:03:14.487Z,17.08
2023-05-03T09:05:44.321Z,17.30
2023-05-03T09:08:14.564Z,16.13
2023-05-03T09:10:43.816Z,18.08
2023-05-03T09:13:13.516Z,16.75
2023-05-03T09:15:45.293Z,15.15
2023-05-03T09:18:17.271Z,14.50
2023-05-03T09:20:52.035Z,15.43
2023-05-03T09:23:31.324Z,16.90
2023-05-03T09:26:01.138Z,14.07
2023-05-03T09:28:30.895Z,15.85
2023-05-03T09:31:06.931Z,14.80
2023-05-03T09:33:35.585Z,14.60
2023-05-03T09:36:06.448Z,15.52
2023-05-03T09:38:36.665Z,14.98
2023-05-03T09:41:06.939Z,14.05
2023-05-03T09:43:36.823Z,13.25
2023-05-03T09:46:12.952Z,12.23
2023-05-03T09:48:42.039Z,12.52
2023-05-03T09:51:12.331Z,12.70
2023-05-03T09:53:41.994Z,12.05
2023-05-03T09:56:13.371Z,11.00
2023-05-03T09:58:44.962Z,10.65
2023-05-03T10:01:16.243Z,12.98
2023-05-03T10:03:47.542Z,12.45
2023-05-03T10:06:24.278Z,12.23
2023-05-03T10:09:01.207Z,12.23
2023-05-03T10:11:30.266Z,12.55
2023-05-03T10:14:00.520Z,13.23
2023-05-03T10:16:34.589Z,12.32
2023-05-03T10:19:12.190Z,12.55
2023-05-03T10:22:03.774Z,12.68
2023-05-03T10:24:32.749Z,11.77
2023-05-03T10:27:01.887Z,11.63
2023-05-03T10:29:52.431Z,11.85
2023-05-03T10:32:35.617Z,11.43
2023-05-03T10:35:08.133Z,11.75
2023-05-03T10:37:38.040Z,10.68
2023-05-03T10:40:08.346Z,11.73
2023-05-03T10:42:38.449Z,11.40
2023-05-03T10:45:12.960Z,10.13
2023-05-03T10:47:41.893Z,10.52
2023-05-03T10:50:26.815Z,10.82
2023-05-03T10:52:55.727Z,12.77
2023-05-03T10:55:25.801Z,11.30
2023-05-03T10:57:57.737Z,9.75
2023-05-03T11:00:34.767Z,10.88
2023-05-03T11:03:22.057Z,10.82
2023-05-03T11:05:51.031Z,9.75
2023-05-03T11:08:21.542Z,9.88
2023-05-03T11:10:52.043Z,8.32
2023-05-03T11:13:20.440Z,8.27
2023-05-03T11:15:51.084Z,6.38
2023-05-03T11:18:20.125Z,8.68
2023-05-03T11:20:49.081Z,10.68
2023-05-03T11:23:18.169Z,10.38
2023-05-03T11:25:47.310Z,9.80
2023-05-03T11:28:15.836Z,9.48
2023-05-03T11:30:44.602Z,8.27
2023-05-03T11:33:14.540Z,9.48
2023-05-03T11:35:44.475Z,10.35
2023-05-03T11:38:13.363Z,9.88
2023-05-03T11:40:41.824Z,9.30
2023-05-03T11:43:10.578Z,9.43
2023-05-03T11:45:42.966Z,9.82
2023-05-03T11:48:14.593Z,11.45
2023-05-03T11:50:48.166Z,11.02
2023-05-03T11:53:17.554Z,14.63
2023-05-03T11:55:48.193Z,9.57
2023-05-03T11:58:18.643Z,10.05
2023-05-03T12:00:48.628Z,9.02
2023-05-03T12:03:26.806Z,8.95
2023-05-03T12:06:00.033Z,10.45
2023-05-03T12:08:31.087Z,9.13
2023-05-03T12:11:03.264Z,8.38
2023-05-03T12:13:38.301Z,8.52
2023-05-03T12:18:50.864Z,9.70
2023-05-03T12:23:55.854Z,9.70
2023-05-03T12:26:26.612Z,8.95
2023-05-03T12:28:57.118Z,8.80
2023-05-03T12:31:29.093Z,9.25
2023-05-03T12:34:20.044Z,9.40
2023-05-03T12:36:49.090Z,12.45
2023-05-03T12:39:21.593Z,7.90
2023-05-03T12:44:23.666Z,8.70
2023-05-03T12:46:53.475Z,7.60
2023-05-03T12:49:23.905Z,7.60
2023-05-03T12:52:11.329Z,7.32
2023-05-03T12:54:42.318Z,8.18
2023-05-03T12:57:15.510Z,6.43
2023-05-03T12:59:52.156Z,5.35
2023-05-03T13:04:59.464Z,5.40
2023-05-03T13:07:31.702Z,7.63
2023-05-03T13:12:36.305Z,6.22
2023-05-03T13:15:06.556Z,5.18
2023-05-03T13:17:35.308Z,5.78
2023-05-03T13:20:08.224Z,4.65
2023-05-03T13:22:36.598Z,5.85
2023-05-03T13:25:05.709Z,7.28
2023-05-03T13:27:34.888Z,6.03
2023-05-03T13:30:05.083Z,5.63
2023-05-03T13:32:34.226Z,5.15
2023-05-03T13:35:03.217Z,7.93
2023-05-03T13:37:33.075Z,8.32
2023-05-03T13:40:02.116Z,5.05
2023-05-03T13:42:30.605Z,5.07
2023-05-03T13:44:59.709Z,6.45
2023-05-03T13:47:33.060Z,69.25
2023-05-03T13:50:11.862Z,23.45
2023-05-03T13:52:42.036Z,5.53
2023-05-03T13:55:12.227Z,5.40
2023-05-03T13:57:41.011Z,5.38
2023-05-03T14:00:10.535Z,5.07
2023-05-03T14:02:39.577Z,5.32
2023-05-03T14:05:08.666Z,5.57
2023-05-03T14:07:38.097Z,6.10
2023-05-03T14:10:10.044Z,4.45
2023-05-03T14:12:38.891Z,4.60
2023-05-03T14:15:08.868Z,4.53
2023-05-03T14:17:37.259Z,5.53
2023-05-03T14:20:08.359Z,4.40
2023-05-03T14:22:37.401Z,6.15
2023-05-03T14:25:06.607Z,4.57
2023-05-03T14:27:36.860Z,5.05
2023-05-03T14:30:06.423Z,5.40
2023-05-03T14:32:35.843Z,4.38
2023-05-03T14:35:04.360Z,4.90
2023-05-03T14:37:33.795Z,4.40
2023-05-03T14:40:02.428Z,5.10
2023-05-03T14:42:32.471Z,4.57
2023-05-03T14:45:03.188Z,4.43
2023-05-03T14:47:31.802Z,4.43
2023-05-03T14:50:00.193Z,4.43
2023-05-03T14:52:30.162Z,6.80
2023-05-03T14:54:58.549Z,4.60
2023-05-03T14:57:27.527Z,4.28
2023-05-03T14:59:56.289Z,6.15
2023-05-03T15:02:27.650Z,4.47
2023-05-03T15:04:56.085Z,3.70
2023-05-03T15:07:25.491Z,4.65
2023-05-03T15:09:54.255Z,5.25
2023-05-03T15:12:23.063Z,4.72
2023-05-03T15:14:51.534Z,4.22
2023-05-03T15:17:20.065Z,4.20
2023-05-03T15:19:50.937Z,3.88
2023-05-03T15:22:19.518Z,4.00
2023-05-03T15:24:48.370Z,5.90
2023-05-03T15:27:18.090Z,4.05
2023-05-03T15:29:46.623Z,3.42
2023-05-03T15:32:15.960Z,4.00
2023-05-03T15:34:44.303Z,3.40
2023-05-03T15:37:14.521Z,4.22
2023-05-03T15:39:42.936Z,5.70
2023-05-03T15:42:11.301Z,4.57
2023-05-03T15:44:39.673Z,4.15
2023-05-03T15:47:08.816Z,3.88
2023-05-03T15:49:37.304Z,3.50
2023-05-03T15:52:08.892Z,5.15
2023-05-03T15:54:39.008Z,5.85
2023-05-03T15:57:07.890Z,3.38
2023-05-03T15:59:36.824Z,4.28
2023-05-03T16:02:05.875Z,4.85
2023-05-03T16:04:37.521Z,3.70
2023-05-03T16:07:06.451Z,3.22
2023-05-03T16:09:35.513Z,3.20
2023-05-03T16:12:05.693Z,4.18
2023-05-03T16:14:34.704Z,3.63
2023-05-03T16:17:03.264Z,4.15
2023-05-03T16:19:32.060Z,6.40
2023-05-03T16:22:00.746Z,3.55
2023-05-03T16:24:29.396Z,3.13
2023-05-03T16:26:58.116Z,3.22
2023-05-03T16:29:29.804Z,3.65
2023-05-03T16:31:59.112Z,3.55
2023-05-03T16:34:27.840Z,4.75
2023-05-03T16:36:56.204Z,5.00
2023-05-03T16:39:25.286Z,3.63
2023-05-03T16:41:53.713Z,4.43
2023-05-03T16:44:22.095Z,4.15
2023-05-03T16:46:53.589Z,3.58
2023-05-03T16:49:22.622Z,3.35
2023-05-03T16:51:51.034Z,4.85
2023-05-03T16:54:21.503Z,3.38
2023-05-03T16:56:50.076Z,3.85
2023-05-03T16:59:20.129Z,4.43
2023-05-03T17:01:48.545Z,3.85
2023-05-03T17:04:18.490Z,3.63
2023-05-03T17:06:47.248Z,6.35
2023-05-03T17:09:15.617Z,5.28
2023-05-03T17:11:43.950Z,4.45
2023-05-03T17:14:12.629Z,3.72
2023-05-03T17:16:41.907Z,5.60
2023-05-03T17:19:10.621Z,4.00
2023-05-03T17:21:41.686Z,5.63
2023-05-03T17:24:10.890Z,4.20
2023-05-03T17:26:40.650Z,4.07
2023-05-03T17:29:09.028Z,6.38
2023-05-03T17:31:38.296Z,6.05
2023-05-03T17:34:06.884Z,4.35
2023-05-03T17:36:36.189Z,6.00
2023-05-03T17:39:06.029Z,5.30
2023-05-03T17:41:37.488Z,6.25
2023-05-03T17:44:05.996Z,5.65
2023-05-03T17:46:35.565Z,6.78
2023-05-03T17:49:04.634Z,9.15
2023-05-03T17:51:33.138Z,5.78
2023-05-03T17:54:03.069Z,6.65
2023-05-03T17:56:32.857Z,6.30
2023-05-03T17:59:02.366Z,6.55
2023-05-03T18:01:30.761Z,9.80
2023-05-03T18:04:01.005Z,8.02
2023-05-03T18:06:29.951Z,7.97
2023-05-03T18:08:58.971Z,7.60
2023-05-03T18:11:27.397Z,10.50
2023-05-03T18:14:16.801Z,7.68
2023-05-03T18:16:45.560Z,8.77
2023-05-03T18:19:14.748Z,7.50
2023-05-03T18:21:43.132Z,8.77
2023-05-03T18:24:16.058Z,6.85
2023-05-03T18:26:44.517Z,8.02
2023-05-03T18:29:12.869Z,7.50
2023-05-03T18:31:44.716Z,8.02
2023-05-03T18:34:13.303Z,9.68
2023-05-03T18:36:42.217Z,7.10
2023-05-03T18:39:10.965Z,7.47
2023-05-03T18:41:41.140Z,8.02
2023-05-03T18:44:09.888Z,8.40
2023-05-03T18:46:40.178Z,8.02
2023-05-03T18:49:11.961Z,7.18
2023-05-03T18:51:40.429Z,8.73
2023-05-03T18:54:13.028Z,6.95
2023-05-03T18:56:41.831Z,9.05
2023-05-03T18:59:11.125Z,8.52
2023-05-03T19:01:39.927Z,11.13
2023-05-03T19:04:08.347Z,8.48
2023-05-03T19:06:38.137Z,8.15
2023-05-03T19:09:06.834Z,8.45
2023-05-03T19:11:36.000Z,7.65
2023-05-03T19:14:05.084Z,6.78
2023-05-03T19:16:34.178Z,7.05
2023-05-03T19:19:02.790Z,9.35
2023-05-03T19:21:32.141Z,8.02
2023-05-03T19:24:02.593Z,8.68
2023-05-03T19:26:31.506Z,9.85
2023-05-03T19:29:00.054Z,7.30
2023-05-03T19:31:28.889Z,7.05
2023-05-03T19:33:57.325Z,11.90
2023-05-03T19:36:25.782Z,7.93
2023-05-03T19:38:54.625Z,7.07
2023-05-03T19:41:25.234Z,8.27
2023-05-03T19:43:55.651Z,11.02
2023-05-03T19:46:24.523Z,9.27
2023-05-03T19:48:53.489Z,10.30
2023-05-03T19:51:22.140Z,8.80
2023-05-03T19:53:51.638Z,7.88
2023-05-03T19:56:21.704Z,8.88
2023-05-03T19:58:51.895Z,8.55
2023-05-03T20:01:20.453Z,7.88
2023-05-03T20:03:49.009Z,8.82
2023-05-03T20:06:17.460Z,8.23
2023-05-03T20:08:45.848Z,9.80
2023-05-03T20:11:14.678Z,7.72
2023-05-03T20:13:43.166Z,9.35
2023-05-03T20:16:13.175Z,8.73
2023-05-03T20:18:42.772Z,16.48
2023-05-03T20:21:11.103Z,13.48
2023-05-03T20:23:39.563Z,8.93
2023-05-03T20:26:08.022Z,7.20
2023-05-03T20:28:36.542Z,8.90
2023-05-03T20:31:05.554Z,16.08
2023-05-03T20:33:35.284Z,34.67
2023-05-03T20:36:03.904Z,31.73
2023-05-03T20:38:32.782Z,28.10
2023-05-03T20:41:01.174Z,32.65
2023-05-03T20:43:30.060Z,23.42
2023-05-03T20:45:59.130Z,16.58
2023-05-03T20:48:27.794Z,18.13
2023-05-03T20:50:58.865Z,23.27
2023-05-03T20:53:27.328Z,15.85
2023-05-03T20:56:00.907Z,16.33
2023-05-03T20:58:29.353Z,15.65
2023-05-03T21:00:58.079Z,13.32
2023-05-03T21:03:26.800Z,15.38
2023-05-03T21:05:56.446Z,16.90
2023-05-03T21:08:26.378Z,17.10
2023-05-03T21:10:55.420Z,12.50
2023-05-03T21:13:23.772Z,11.77
2023-05-03T21:15:52.581Z,11.50
2023-05-03T21:18:20.969Z,11.15
2023-05-03T21:20:49.364Z,10.35
2023-05-03T21:23:17.723Z,11.15
2023-05-03T21:25:48.220Z,10.70
2023-05-03T21:28:16.779Z,11.35
2023-05-03T21:30:48.338Z,11.20
2023-05-03T21:33:16.952Z,10.20
2023-05-03T21:35:45.334Z,10.38
2023-05-03T21:38:15.331Z,9.45
2023-05-03T21:40:44.209Z,10.63
2023-05-03T21:43:13.957Z,10.02
2023-05-03T21:45:44.126Z,10.70
2023-05-03T21:48:12.698Z,11.75
2023-05-03T21:50:41.304Z,11.38
2023-05-03T21:53:10.159Z,13.43
2023-05-03T21:55:39.256Z,12.82
2023-05-03T21:58:08.092Z,13.57
2023-05-03T22:00:39.923Z,9.63
2023-05-03T22:03:08.898Z,9.80
2023-05-03T22:05:39.291Z,10.35
2023-05-03T22:08:08.058Z,9.73
2023-05-03T22:10:38.353Z,10.35
2023-05-03T22:13:06.755Z,9.60
2023-05-03T22:15:37.373Z,11.73
2023-05-03T22:18:05.942Z,10.48
2023-05-03T22:20:34.315Z,11.00
2023-05-03T22:23:04.575Z,10.55
2023-05-03T22:25:33.184Z,10.15
2023-05-03T22:28:02.112Z,10.98
2023-05-03T22:30:31.418Z,12.13
2023-05-03T22:33:02.629Z,9.65
2023-05-03T22:35:31.576Z,10.05
2023-05-03T22:38:00.699Z,9.40
2023-05-03T22:40:29.021Z,8.80
2023-05-03T22:42:58.572Z,10.20
2023-05-03T22:45:27.001Z,9.23
2023-05-03T22:47:56.092Z,11.23
2023-05-03T22:50:26.130Z,9.68
2023-05-03T22:52:55.852Z,9.10
2023-05-03T22:55:24.579Z,9.45
2023-05-03T22:57:53.405Z,9.45
2023-05-03T23:00:22.395Z,11.75
2023-05-03T23:02:51.885Z,10.85
2023-05-03T23:05:20.657Z,9.23
2023-05-03T23:07:51.153Z,9.05
2023-05-03T23:10:19.505Z,9.60
2023-05-03T23:12:48.765Z,10.30
2023-05-03T23:15:18.022Z,10.77
2023-05-03T23:17:46.519Z,10.93
2023-05-03T23:20:16.043Z,10.02
2023-05-03T23:22:44.514Z,9.27
2023-05-03T23:25:16.809Z,9.60
2023-05-03T23:27:45.211Z,10.32
2023-05-03T23:30:15.597Z,9.40
2023-05-03T23:32:44.965Z,10.13
2023-05-03T23:35:15.038Z,10.52
2023-05-03T23:37:44.198Z,10.60
2023-05-03T23:40:14.239Z,10.57
2023-05-03T23:42:43.859Z,10.10
2023-05-03T23:45:12.783Z,9.68
2023-05-03T23:47:42.005Z,10.77
2023-05-03T23:50:11.308Z,11.43
2023-05-03T23:52:40.219Z,10.80
2023-05-03T23:55:09.780Z,9.52
2023-05-03T23:57:39.511Z,10.07
